Time;durP1;ratioP1;P1;durP2;ratioP2;P2;SDS_P1;SDS_P2;PMS_P1;PMS_P2;Temp;Humidity;BMP_temperature;BMP_pressure;BME280_temperature;BME280_humidity;BME280_pressure;Samples;Min_cycle;Max_cycle;Signal;HPM_P1;HPM_P2
2022/01/20 00:02:22;;;;;;;7.57;0.90;;;4.90;99.90;;;;;;10246185;28;84317;-51
2022/01/20 00:07:28;;;;;;;5.32;1.15;;;5.00;99.90;;;;;;10249888;28;84063;-53
2022/01/20 00:28:48;;;;;;;11.18;1.58;;;5.10;99.90;;;;;;10231279;28;84283;-52
2022/01/20 00:33:54;;;;;;;13.73;2.17;;;5.10;99.90;;;;;;10251110;28;86195;-50
2022/01/20 00:38:55;;;;;;;6.90;1.13;;;5.10;99.90;;;;;;10251009;28;84969;-51
2022/01/20 00:43:55;;;;;;;12.00;1.13;;;5.10;99.90;;;;;;10252073;28;84071;-52
2022/01/20 00:48:56;;;;;;;4.78;0.95;;;5.10;99.90;;;;;;10245676;28;85061;-51
2022/01/20 00:53:57;;;;;;;6.30;1.08;;;5.00;99.90;;;;;;10249251;28;87575;-49
2022/01/20 00:58:57;;;;;;;1.67;0.65;;;4.90;99.90;;;;;;10250628;28;84922;-52
2022/01/20 01:03:58;;;;;;;5.13;1.02;;;4.90;99.90;;;;;;10250645;28;84124;-52
2022/01/20 01:08:58;;;;;;;9.55;1.27;;;5.00;99.90;;;;;;10232790;28;87009;-51
2022/01/20 01:14:01;;;;;;;9.30;0.95;;;4.90;99.90;;;;;;10250853;28;84730;-51
2022/01/20 01:24:22;;;;;;;8.27;1.27;;;5.00;99.90;;;;;;10251257;28;84317;-52
2022/01/20 01:29:47;;;;;;;9.93;1.30;;;5.00;99.90;;;;;;10248869;28;85970;-54
2022/01/20 01:34:49;;;;;;;8.05;0.88;;;4.90;99.90;;;;;;10249650;28;86944;-50
2022/01/20 01:39:50;;;;;;;5.95;0.90;;;4.90;99.90;;;;;;10250968;28;85892;-52
2022/01/20 01:44:52;;;;;;;3.80;0.40;;;4.80;99.90;;;;;;10250027;28;86910;-51
2022/01/20 01:49:53;;;;;;;5.05;0.68;;;4.70;99.90;;;;;;10249277;28;86774;-52
2022/01/20 01:54:55;;;;;;;2.95;0.70;;;4.70;99.90;;;;;;10249136;28;86880;-52
2022/01/20 01:59:56;;;;;;;13.07;1.52;;;4.90;99.90;;;;;;10248900;28;85914;-50
2022/01/20 02:05:17;;;;;;;2.05;0.40;;;4.80;99.90;;;;;;10246684;28;84398;-52
2022/01/20 02:21:09;;;;;;;4.50;0.75;;;4.70;99.90;;;;;;10247605;28;85733;-50
2022/01/20 02:26:10;;;;;;;7.38;1.27;;;4.80;99.90;;;;;;10246362;28;86785;-54
2022/01/20 02:31:10;;;;;;;6.30;0.85;;;4.80;99.90;;;;;;10230130;28;86809;-51
2022/01/20 02:36:15;;;;;;;3.60;1.08;;;4.80;99.90;;;;;;10247031;28;87161;-51
2022/01/20 02:46:37;;;;;;;3.13;0.60;;;4.80;99.90;;;;;;10247032;28;85891;-50
2022/01/20 02:51:38;;;;;;;4.15;0.65;;;4.80;99.90;;;;;;10246356;28;86073;-51
2022/01/20 02:56:38;;;;;;;4.18;0.75;;;4.80;99.90;;;;;;10245978;28;86885;-49
2022/01/20 03:01:39;;;;;;;13.73;1.30;;;4.80;99.90;;;;;;10243734;28;86698;-49
2022/01/20 03:06:40;;;;;;;7.97;1.10;;;4.80;99.90;;;;;;10239050;28;85180;-51
2022/01/20 03:11:41;;;;;;;3.10;0.57;;;4.80;99.90;;;;;;10247575;28;84214;-49
2022/01/20 03:16:42;;;;;;;4.43;0.50;;;4.90;99.90;;;;;;10244972;28;85850;-50
2022/01/20 03:21:44;;;;;;;3.67;1.27;;;4.90;99.90;;;;;;10244786;28;85929;-52
2022/01/20 03:26:45;;;;;;;1.92;0.40;;;4.90;99.90;;;;;;10244611;28;85920;-51
2022/01/20 03:31:46;;;;;;;3.03;0.63;;;4.80;99.90;;;;;;10244977;28;87012;-50
2022/01/20 03:36:47;;;;;;;2.50;0.60;;;4.70;99.90;;;;;;10241415;28;84264;-51
2022/01/20 03:41:53;;;;;;;3.72;0.63;;;4.80;99.90;;;;;;10244510;28;85760;-50
2022/01/20 03:47:01;;;;;;;2.25;0.17;;;4.80;66.80;;;;;;10259226;28;86125;-50
2022/01/20 03:52:02;;;;;;;0.95;0.35;;;4.80;26.90;;;;;;10282279;28;86036;-54
2022/01/20 03:57:04;;;;;;;3.75;0.65;;;4.80;53.70;;;;;;10297696;28;86739;-49
2022/01/20 04:02:25;;;;;;;1.05;0.20;;;4.90;97.50;;;;;;10299204;28;84687;-50
2022/01/20 04:07:37;;;;;;;4.18;0.88;;;4.80;99.90;;;;;;10297851;28;85920;-52
2022/01/20 04:12:37;;;;;;;2.35;0.20;;;4.80;81.50;;;;;;10295754;28;84866;-52
2022/01/20 04:17:46;;;;;;;0.52;0.25;;;4.80;14.70;;;;;;10285945;28;86546;-49
2022/01/20 04:22:47;;;;;;;2.53;0.60;;;4.80;1.00;;;;;;10299306;28;84953;-48
2022/01/20 04:27:48;;;;;;;3.35;0.52;;;4.80;1.00;;;;;;10296380;28;86638;-51
2022/01/20 04:32:48;;;;;;;4.72;0.50;;;4.80;1.00;;;;;;10299391;28;84186;-50
2022/01/20 04:37:51;;;;;;;0.47;0.17;;;4.70;99.90;;;;;;10295613;28;87096;-50
2022/01/20 04:42:52;;;;;;;3.42;0.30;;;4.60;99.90;;;;;;10296778;28;86024;-52
2022/01/20 04:58:33;;;;;;;0.25;0.05;;;4.70;99.90;;;;;;10289775;28;85962;-49
2022/01/20 05:03:34;;;;;;;5.57;0.30;;;4.70;99.90;;;;;;10273628;28;86931;-51
2022/01/20 05:08:46;;;;;;;3.65;0.45;;;4.70;99.90;;;;;;10274841;28;85596;-50
2022/01/20 05:13:47;;;;;;;4.32;0.40;;;4.70;99.90;;;;;;10257360;28;86800;-49
2022/01/20 05:18:48;;;;;;;3.65;0.40;;;4.60;99.90;;;;;;10230935;28;86059;-49
2022/01/20 05:23:49;;;;;;;7.25;1.02;;;4.50;99.90;;;;;;10247907;28;86409;-56
2022/01/20 05:28:50;;;;;;;0.77;0.30;;;4.40;99.90;;;;;;10287406;23;85737;-47
2022/01/20 05:33:51;;;;;;;1.38;0.45;;;4.40;99.90;;;;;;10287875;28;85788;-44
2022/01/20 05:38:52;;;;;;;3.22;0.95;;;4.30;1.00;;;;;;10271138;28;85683;-44
2022/01/20 05:43:53;;;;;;;2.38;0.52;;;4.20;1.00;;;;;;10286366;28;86606;-45
2022/01/20 05:48:58;;;;;;;2.67;0.50;;;4.10;1.00;;;;;;10286512;28;86045;-44
2022/01/20 05:54:07;;;;;;;1.42;0.40;;;4.10;1.00;;;;;;10293817;28;85726;-43
2022/01/20 05:59:08;;;;;;;4.70;0.57;;;4.00;1.00;;;;;;10286389;28;86061;-49
2022/01/20 06:04:10;;;;;;;6.07;0.45;;;4.00;1.00;;;;;;10286047;28;86741;-46
2022/01/20 06:09:11;;;;;;;4.95;0.55;;;4.00;1.00;;;;;;10286066;28;86973;-46
2022/01/20 06:14:12;;;;;;;6.57;0.80;;;4.00;1.00;;;;;;10286866;28;86774;-45
2022/01/20 06:19:13;;;;;;;1.30;0.60;;;4.00;99.90;;;;;;10286370;28;85492;-46
2022/01/20 06:24:16;;;;;;;3.30;0.40;;;3.90;99.90;;;;;;10282490;28;85810;-47
2022/01/20 06:29:16;;;;;;;10.60;1.17;;;3.80;99.90;;;;;;10281510;28;86828;-46
2022/01/20 06:34:18;;;;;;;3.28;0.88;;;3.60;1.00;;;;;;10285573;28;85947;-48
2022/01/20 06:39:19;;;;;;;5.25;0.77;;;3.60;99.90;;;;;;10285881;28;86727;-46
2022/01/20 06:44:21;;;;;;;3.55;0.65;;;3.50;99.90;;;;;;10283442;28;85797;-46
2022/01/20 06:49:22;;;;;;;5.90;0.82;;;3.60;34.60;;;;;;10278979;28;84744;-49
2022/01/20 06:54:30;;;;;;;4.60;0.45;;;3.60;1.00;;;;;;10280814;28;86782;-46
2022/01/20 06:59:32;;;;;;;5.97;0.30;;;3.70;1.00;;;;;;10282983;28;85799;-50
2022/01/20 07:04:33;;;;;;;1.55;0.60;;;3.70;1.00;;;;;;10284193;28;85998;-47
2022/01/20 07:09:36;;;;;;;0.85;0.38;;;3.70;1.00;;;;;;10298921;28;85882;-49
2022/01/20 07:14:45;;;;;;;2.72;0.32;;;3.70;1.00;;;;;;10279044;28;86965;-51
2022/01/20 07:19:47;;;;;;;15.90;1.05;;;3.70;1.00;;;;;;10284123;28;86588;-48
2022/01/20 07:24:50;;;;;;;8.00;0.57;;;3.60;1.00;;;;;;10280000;28;86065;-50
2022/01/20 07:30:05;;;;;;;1.45;0.43;;;3.50;99.90;;;;;;10281472;28;84746;-48
2022/01/20 07:35:06;;;;;;;6.90;1.17;;;3.50;1.00;;;;;;10283311;28;86063;-50
2022/01/20 07:40:08;;;;;;;5.20;0.50;;;3.60;1.00;;;;;;10281421;28;86825;-48
2022/01/20 07:45:09;;;;;;;3.33;1.00;;;3.60;1.00;;;;;;10283153;28;86101;-48
2022/01/20 07:50:22;;;;;;;2.60;0.60;;;3.60;1.00;;;;;;10281908;28;86980;-43
2022/01/20 07:55:23;;;;;;;3.83;0.35;;;3.60;99.90;;;;;;10276664;28;86965;-54
2022/01/20 08:00:24;;;;;;;6.30;0.95;;;3.50;99.90;;;;;;10278481;28;85962;-50
2022/01/20 08:05:27;;;;;;;3.53;0.80;;;3.50;69.80;;;;;;10281120;28;85748;-52
2022/01/20 08:10:28;;;;;;;3.70;0.68;;;3.50;1.00;;;;;;10283229;28;85545;-48
2022/01/20 08:15:29;;;;;;;5.93;1.08;;;3.60;1.00;;;;;;10282461;28;86806;-51
2022/01/20 08:20:41;;;;;;;1.08;0.52;;;3.60;1.00;;;;;;10268210;28;86098;-49
2022/01/20 08:25:45;;;;;;;5.22;1.33;;;3.70;1.00;;;;;;10266882;28;86145;-45
2022/01/20 08:30:46;;;;;;;2.63;0.35;;;3.70;99.90;;;;;;10289727;28;87063;-44
2022/01/20 08:35:48;;;;;;;6.07;0.28;;;3.80;1.00;;;;;;10289536;28;85758;-43
2022/01/20 08:41:13;;;;;;;0.30;0.15;;;3.80;1.00;;;;;;10289448;28;86771;-48
2022/01/20 08:46:19;;;;;;;8.98;0.80;;;3.80;99.90;;;;;;10316415;28;86932;-53
2022/01/20 08:51:20;;;;;;;8.20;1.13;;;3.70;1.00;;;;;;10315075;28;86644;-45
2022/01/20 08:56:41;;;;;;;1.40;0.60;;;3.50;1.00;;;;;;10294148;28;85924;-48
2022/01/20 09:01:42;;;;;;;6.03;0.68;;;3.50;1.00;;;;;;10288839;28;86596;-48
2022/01/20 09:06:43;;;;;;;2.95;0.98;;;3.50;99.90;;;;;;10289984;28;85674;-50
2022/01/20 09:12:14;;;;;;;3.72;0.60;;;3.50;99.90;;;;;;10289076;28;85915;-48
2022/01/20 09:17:12;;;;;;;1.65;0.63;;;3.50;34.20;;;;;;10287646;28;85006;-48
2022/01/20 09:22:14;;;;;;;2.53;0.50;;;4.10;1.00;;;;;;10287604;28;85977;-49
2022/01/20 09:27:15;;;;;;;4.32;0.55;;;4.30;1.00;;;;;;10286538;28;86734;-48
2022/01/20 09:32:18;;;;;;;5.70;0.88;;;4.50;1.00;;;;;;10288831;28;87323;-44
2022/01/20 09:37:19;;;;;;;2.28;0.68;;;4.60;1.00;;;;;;10303240;28;85961;-47
2022/01/20 09:42:24;;;;;;;1.48;0.38;;;4.40;99.90;;;;;;10323564;28;86063;-44
2022/01/20 09:47:25;;;;;;;2.03;0.60;;;4.30;1.00;;;;;;10319224;28;86017;-49
2022/01/20 09:52:31;;;;;;;2.88;0.65;;;4.20;1.00;;;;;;10290579;28;84578;-48
2022/01/20 09:57:47;;;;;;;6.22;0.73;;;4.30;1.00;;;;;;10288378;28;84136;-47
2022/01/20 10:03:05;;;;;;;2.90;0.68;;;4.40;1.00;;;;;;10287564;28;85736;-49
2022/01/20 10:08:13;;;;;;;3.38;1.17;;;4.90;1.00;;;;;;10268995;28;86746;-53
2022/01/20 10:13:27;;;;;;;3.90;0.93;;;4.70;1.00;;;;;;10286503;28;85665;-53
2022/01/20 10:18:49;;;;;;;11.35;0.77;;;4.70;1.00;;;;;;10284202;28;87005;-52
2022/01/20 10:23:50;;;;;;;2.78;0.73;;;4.80;1.00;;;;;;10287300;28;86908;-49
2022/01/20 10:29:08;;;;;;;3.85;0.63;;;5.50;99.90;;;;;;10283643;28;86668;-49
2022/01/20 10:34:18;;;;;;;3.35;0.52;;;5.90;1.00;;;;;;10285373;28;85996;-49
2022/01/20 10:39:28;;;;;;;2.17;0.77;;;6.50;1.00;;;;;;10285753;28;85822;-48
2022/01/20 10:44:40;;;;;;;3.55;1.48;;;6.70;1.00;;;;;;10297343;28;87143;-46
2022/01/20 10:49:46;;;;;;;3.75;0.68;;;6.80;1.00;;;;;;10324558;28;86873;-49
2022/01/20 10:54:50;;;;;;;4.40;0.77;;;7.00;99.90;;;;;;10290191;28;86694;-50
2022/01/20 11:00:10;;;;;;;4.68;0.95;;;6.60;29.10;;;;;;10285174;28;86127;-43
2022/01/20 11:05:21;;;;;;;4.13;1.02;;;6.00;95.20;;;;;;10284867;28;87080;-44
2022/01/20 11:10:24;;;;;;;3.40;0.55;;;5.40;99.90;;;;;;10284034;28;86870;-44
2022/01/20 11:15:44;;;;;;;1.38;0.20;;;5.20;99.90;;;;;;10283795;28;84549;-45
2022/01/20 11:20:48;;;;;;;0.77;0.30;;;5.10;99.90;;;;;;10313580;28;86856;-44
2022/01/20 11:26:03;;;;;;;7.63;0.57;;;5.10;99.90;;;;;;10309967;28;85917;-47
2022/01/20 11:31:15;;;;;;;2.10;0.60;;;5.10;1.00;;;;;;10265983;23;86006;-51
2022/01/20 11:36:39;;;;;;;1.10;0.45;;;4.90;1.00;;;;;;10232196;28;85121;-51
2022/01/20 11:41:49;;;;;;;1.38;0.15;;;4.70;99.90;;;;;;10243971;28;84594;-47
2022/01/20 11:46:52;;;;;;;2.08;0.80;;;4.60;99.90;;;;;;10242562;28;84447;-49
2022/01/20 11:51:56;;;;;;;7.10;0.98;;;4.60;99.90;;;;;;10247401;28;84322;-49
2022/01/20 11:57:11;;;;;;;2.65;1.00;;;4.40;99.90;;;;;;10243939;28;84305;-53
2022/01/20 12:02:23;;;;;;;0.93;0.22;;;4.50;1.00;;;;;;10247451;28;84330;-51
2022/01/20 12:07:33;;;;;;;0.60;0.20;;;4.50;1.00;;;;;;10251390;28;86881;-56
2022/01/20 12:12:34;;;;;;;2.38;0.45;;;4.60;1.00;;;;;;10253461;28;84743;-56
2022/01/20 12:17:36;;;;;;;1.80;0.70;;;4.90;1.00;;;;;;10251816;28;85125;-55
2022/01/20 12:22:45;;;;;;;4.47;0.43;;;4.80;1.00;;;;;;10277287;28;84960;-55
2022/01/20 12:27:46;;;;;;;0.75;0.25;;;4.90;99.90;;;;;;10292112;28;84297;-56
2022/01/20 12:32:58;;;;;;;5.65;0.60;;;4.90;99.90;;;;;;10292457;28;84035;-52
2022/01/20 12:37:58;;;;;;;4.93;0.35;;;5.00;99.90;;;;;;10274123;28;86126;-54
2022/01/20 12:42:59;;;;;;;0.63;0.20;;;5.20;1.00;;;;;;10292791;28;85215;-55
2022/01/20 12:48:10;;;;;;;5.30;0.25;;;5.10;1.00;;;;;;10248398;28;86931;-50
2022/01/20 12:53:12;;;;;;;0.00;0.00;;;5.40;99.90;;;;;;10264235;28;84169;-55
2022/01/20 12:58:13;;;;;;;2.38;0.65;;;5.40;1.00;;;;;;10250018;28;85145;-55
2022/01/20 13:03:13;;;;;;;4.03;0.60;;;5.30;1.00;;;;;;10249765;28;86810;-57
2022/01/20 13:08:21;;;;;;;7.07;1.10;;;5.10;1.00;;;;;;10248846;28;84371;-56
2022/01/20 13:13:21;;;;;;;0.43;0.10;;;4.90;1.00;;;;;;10249983;28;84881;-55
2022/01/20 13:18:22;;;;;;;2.28;0.22;;;4.80;1.00;;;;;;10250313;28;84952;-56
2022/01/20 13:28:24;;;;;;;2.75;0.15;;;5.00;1.00;;;;;;10249462;28;84087;-54
2022/01/20 13:33:27;;;;;;;3.55;0.50;;;5.00;1.00;;;;;;10249491;28;84349;-57
2022/01/20 13:38:41;;;;;;;3.42;0.47;;;5.30;1.00;;;;;;10248400;28;84747;-46
2022/01/20 13:49:14;;;;;;;4.32;0.30;;;5.20;99.90;;;;;;10246375;28;84904;-55
2022/01/20 13:54:15;;;;;;;2.00;0.40;;;5.20;1.00;;;;;;10248747;28;84234;-58
2022/01/20 13:59:15;;;;;;;2.50;0.60;;;5.20;1.00;;;;;;10247789;28;85068;-56
2022/01/20 14:04:16;;;;;;;2.47;0.30;;;5.20;99.90;;;;;;10248616;28;84831;-48
2022/01/20 14:09:17;;;;;;;1.67;0.32;;;5.10;1.00;;;;;;10246870;28;84412;-55
2022/01/20 14:14:18;;;;;;;3.95;0.68;;;4.90;1.00;;;;;;10245652;28;85049;-58
2022/01/20 14:19:23;;;;;;;1.33;0.20;;;5.00;1.00;;;;;;10246292;28;84768;-50
2022/01/20 14:24:23;;;;;;;2.42;0.45;;;5.00;1.00;;;;;;10248250;28;84894;-47
2022/01/20 14:29:25;;;;;;;7.88;0.80;;;4.90;43.40;;;;;;10247121;28;84206;-49
2022/01/20 14:34:26;;;;;;;1.88;0.43;;;5.00;1.00;;;;;;10231490;28;86734;-57
2022/01/20 14:39:26;;;;;;;0.85;0.55;;;5.10;76.50;;;;;;10247983;28;84158;-58
2022/01/20 14:44:27;;;;;;;3.33;1.00;;;5.20;99.90;;;;;;10237420;28;84358;-55
2022/01/20 14:49:28;;;;;;;2.10;0.40;;;5.20;1.00;;;;;;10207799;28;85097;-56
2022/01/20 14:54:28;;;;;;;4.03;0.73;;;5.10;1.00;;;;;;10216974;28;84007;-56
2022/01/20 14:59:32;;;;;;;2.53;0.47;;;4.90;1.00;;;;;;10246683;28;84377;-56
2022/01/20 15:04:33;;;;;;;0.68;0.30;;;4.80;1.00;;;;;;10245749;28;84129;-53
2022/01/20 15:09:33;;;;;;;2.90;0.40;;;4.80;1.00;;;;;;10246055;28;84968;-56
2022/01/20 15:14:37;;;;;;;5.03;1.02;;;4.90;99.90;;;;;;10246131;28;84360;-55
2022/01/20 15:19:38;;;;;;;0.20;0.10;;;4.90;99.90;;;;;;10247109;28;84186;-53
2022/01/20 15:24:38;;;;;;;1.65;0.85;;;4.40;1.00;;;;;;10245627;28;84773;-58
2022/01/20 15:29:39;;;;;;;2.00;0.68;;;3.80;99.90;;;;;;10242195;28;86976;-50
2022/01/20 15:34:40;;;;;;;2.28;0.60;;;3.60;1.00;;;;;;10243498;28;84128;-51
2022/01/20 15:39:40;;;;;;;2.45;0.60;;;3.50;1.00;;;;;;10244851;28;84955;-53
2022/01/20 15:44:41;;;;;;;4.25;0.55;;;3.50;1.00;;;;;;10247109;28;84231;-53
2022/01/20 15:49:42;;;;;;;0.57;0.43;;;3.50;1.00;;;;;;10245969;28;84205;-51
2022/01/20 15:54:43;;;;;;;5.70;0.88;;;3.60;1.00;;;;;;10246356;28;84239;-49
2022/01/20 15:59:43;;;;;;;5.10;0.70;;;3.60;1.00;;;;;;10244186;28;85187;-50
2022/01/20 16:04:44;;;;;;;2.80;0.50;;;3.60;1.00;;;;;;10244278;28;86140;-49
2022/01/20 16:09:44;;;;;;;2.25;0.40;;;3.60;1.00;;;;;;10245805;28;84369;-50
2022/01/20 16:14:45;;;;;;;3.83;0.82;;;3.60;1.00;;;;;;10245257;28;85093;-52
2022/01/20 16:19:46;;;;;;;2.80;0.60;;;3.70;1.00;;;;;;10245532;28;84040;-50
2022/01/20 16:24:46;;;;;;;1.55;0.70;;;3.70;1.00;;;;;;10246345;28;84775;-52
2022/01/20 16:29:47;;;;;;;4.30;0.70;;;3.70;1.00;;;;;;10245005;28;84680;-50
2022/01/20 16:34:48;;;;;;;1.42;0.70;;;3.70;1.00;;;;;;10243521;28;87260;-47
2022/01/20 16:39:48;;;;;;;5.22;0.50;;;3.70;1.00;;;;;;10244865;28;84613;-51
2022/01/20 16:44:49;;;;;;;3.80;0.90;;;3.70;1.00;;;;;;10240803;28;84767;-49
2022/01/20 16:49:50;;;;;;;3.28;0.70;;;3.60;1.00;;;;;;10245556;28;84027;-51
2022/01/20 16:54:50;;;;;;;7.88;0.73;;;3.60;1.00;;;;;;10257333;28;84427;-49
2022/01/20 16:59:52;;;;;;;3.05;0.65;;;3.50;1.00;;;;;;10270654;28;84082;-47
2022/01/20 17:04:53;;;;;;;2.53;0.50;;;3.50;1.00;;;;;;10268905;28;84131;-47
2022/01/20 17:09:55;;;;;;;4.95;0.93;;;3.40;1.00;;;;;;10250098;28;86926;-49
2022/01/20 17:14:56;;;;;;;0.95;0.43;;;3.40;1.00;;;;;;10275156;28;84013;-48
2022/01/20 17:19:56;;;;;;;9.23;1.50;;;3.40;1.00;;;;;;10292512;28;84890;-48
2022/01/20 17:24:57;;;;;;;7.20;1.63;;;3.40;1.00;;;;;;10273207;28;85348;-46
2022/01/20 17:29:58;;;;;;;6.03;1.38;;;3.30;93.50;;;;;;10270527;22;84391;-47
2022/01/20 17:34:59;;;;;;;1.35;0.63;;;3.30;99.90;;;;;;10250064;28;84552;-47
2022/01/20 17:40:00;;;;;;;7.68;0.80;;;3.20;99.90;;;;;;10249529;28;84113;-44
2022/01/20 17:45:01;;;;;;;3.22;0.95;;;3.10;99.90;;;;;;10250665;28;86337;-48
2022/01/20 17:50:04;;;;;;;6.18;0.70;;;2.90;1.00;;;;;;10281021;28;84860;-48
2022/01/20 17:55:06;;;;;;;2.05;0.45;;;2.80;1.00;;;;;;10261828;28;84916;-44
2022/01/20 18:00:09;;;;;;;7.57;1.15;;;2.70;1.00;;;;;;10243102;28;84861;-45
2022/01/20 18:05:14;;;;;;;1.77;0.50;;;2.70;1.00;;;;;;10243520;28;84615;-47
2022/01/20 18:10:16;;;;;;;1.13;0.70;;;2.70;1.00;;;;;;10247991;28;84206;-44
2022/01/20 18:15:17;;;;;;;4.38;0.75;;;2.70;1.00;;;;;;10253517;28;85262;-47
2022/01/20 18:20:18;;;;;;;1.83;1.17;;;2.70;1.00;;;;;;10234826;28;85565;-46
2022/01/20 18:25:19;;;;;;;3.20;0.75;;;2.70;1.00;;;;;;10241709;28;85382;-45
2022/01/20 18:30:19;;;;;;;1.45;0.45;;;2.80;1.00;;;;;;10237233;28;86802;-50
2022/01/20 18:35:20;;;;;;;1.02;0.50;;;2.80;1.00;;;;;;10241649;28;85273;-50
2022/01/20 18:40:21;;;;;;;0.90;0.57;;;2.80;1.00;;;;;;10244896;28;85164;-46
2022/01/20 18:45:22;;;;;;;1.90;0.95;;;2.80;1.00;;;;;;10246601;28;85171;-45
2022/01/20 18:50:22;;;;;;;1.83;0.80;;;2.80;1.00;;;;;;10265162;28;86714;-48
2022/01/20 18:55:23;;;;;;;4.13;0.95;;;2.90;1.00;;;;;;10288180;28;84242;-51
2022/01/20 19:00:24;;;;;;;4.57;0.75;;;2.90;1.00;;;;;;10263715;28;84903;-47
2022/01/20 19:05:25;;;;;;;3.65;0.82;;;2.90;1.00;;;;;;10245959;28;84256;-45
2022/01/20 19:10:26;;;;;;;6.57;1.65;;;2.80;1.00;;;;;;10247206;28;84926;-47
2022/01/20 19:15:28;;;;;;;6.10;1.00;;;2.80;1.00;;;;;;10247169;28;84207;-45
2022/01/20 19:20:28;;;;;;;1.58;0.47;;;2.80;1.00;;;;;;10246538;28;84075;-46
2022/01/20 19:25:29;;;;;;;7.90;1.48;;;2.80;1.00;;;;;;10246386;28;85008;-45
2022/01/20 19:30:30;;;;;;;4.90;0.85;;;2.80;1.00;;;;;;10245740;28;85138;-46
2022/01/20 19:35:31;;;;;;;0.88;0.47;;;2.70;1.00;;;;;;10237369;28;84344;-45
2022/01/20 19:40:32;;;;;;;0.98;0.77;;;2.60;1.00;;;;;;10222310;28;84828;-45
2022/01/20 19:45:33;;;;;;;1.30;0.38;;;2.60;1.00;;;;;;10252137;28;84899;-46
2022/01/20 19:50:34;;;;;;;1.35;0.45;;;2.50;1.00;;;;;;10245634;28;84881;-45
2022/01/20 19:55:34;;;;;;;5.53;0.98;;;2.50;1.00;;;;;;10242814;28;87067;-47
2022/01/20 20:00:35;;;;;;;1.00;0.70;;;2.50;1.00;;;;;;10246042;28;84061;-48
2022/01/20 20:05:36;;;;;;;4.20;0.63;;;2.50;1.00;;;;;;10243422;28;85087;-45
2022/01/20 20:10:37;;;;;;;0.38;0.30;;;2.60;1.00;;;;;;10233841;28;85304;-47
2022/01/20 20:15:39;;;;;;;1.45;0.45;;;2.50;1.00;;;;;;10244979;28;84890;-45
2022/01/20 20:20:39;;;;;;;1.42;0.75;;;2.50;1.00;;;;;;10244157;28;84249;-43
2022/01/20 20:25:42;;;;;;;2.03;0.75;;;2.40;1.00;;;;;;10251827;28;84196;-44
2022/01/20 20:30:43;;;;;;;0.50;0.32;;;2.40;1.00;;;;;;10234174;28;86691;-42
2022/01/20 20:35:44;;;;;;;0.63;0.32;;;2.40;1.00;;;;;;10252240;28;85014;-47
2022/01/20 20:40:45;;;;;;;0.30;0.30;;;2.30;9.30;;;;;;10252115;28;84034;-46
2022/01/20 20:45:46;;;;;;;0.50;0.50;;;2.30;60.90;;;;;;10248257;28;84772;-43
2022/01/20 20:50:47;;;;;;;1.35;0.43;;;2.30;75.10;;;;;;10249646;28;84194;-46
2022/01/20 20:55:49;;;;;;;3.70;0.77;;;2.40;36.80;;;;;;10249613;28;85024;-44
2022/01/20 21:00:50;;;;;;;5.90;0.95;;;2.40;9.30;;;;;;10243690;28;84298;-46
2022/01/20 21:05:50;;;;;;;8.07;0.63;;;2.40;1.00;;;;;;10248949;28;85970;-44
2022/01/20 21:10:55;;;;;;;8.40;0.88;;;2.50;1.00;;;;;;10250435;28;84172;-45
2022/01/20 21:15:56;;;;;;;5.22;0.55;;;2.50;1.00;;;;;;10249157;28;85001;-45
2022/01/20 21:20:57;;;;;;;3.08;0.70;;;2.50;1.00;;;;;;10248754;28;84960;-44
2022/01/20 21:25:58;;;;;;;3.40;0.75;;;2.50;1.00;;;;;;10236124;28;85809;-43
2022/01/20 21:31:00;;;;;;;1.98;0.73;;;2.50;1.00;;;;;;10248544;28;84751;-47
2022/01/20 21:36:06;;;;;;;3.10;0.93;;;2.50;1.00;;;;;;10245815;28;85081;-45
2022/01/20 21:41:10;;;;;;;2.08;0.65;;;2.40;1.00;;;;;;10247371;28;85151;-40
2022/01/20 21:46:11;;;;;;;0.68;0.40;;;2.30;2.30;;;;;;10248267;28;84129;-44
2022/01/20 21:51:12;;;;;;;7.07;0.77;;;2.20;73.60;;;;;;10230572;28;86828;-40
2022/01/20 21:56:13;;;;;;;3.50;1.13;;;2.20;99.90;;;;;;10247513;28;84138;-42
2022/01/20 22:01:14;;;;;;;4.78;0.52;;;2.20;99.90;;;;;;10247257;28;84059;-42
2022/01/20 22:06:14;;;;;;;1.20;0.32;;;2.10;99.90;;;;;;10246957;28;84145;-47
2022/01/20 22:11:15;;;;;;;2.50;0.55;;;2.10;99.90;;;;;;10243218;28;85110;-47
2022/01/20 22:16:16;;;;;;;4.75;0.60;;;2.10;99.90;;;;;;10245613;28;84846;-39
2022/01/20 22:21:18;;;;;;;3.97;1.05;;;2.10;99.90;;;;;;10246992;28;84226;-41
2022/01/20 22:26:19;;;;;;;0.65;0.43;;;2.10;99.90;;;;;;10247373;28;84081;-44
2022/01/20 22:31:20;;;;;;;4.45;1.08;;;2.10;99.90;;;;;;10248001;28;84087;-50
2022/01/20 22:36:21;;;;;;;0.22;0.20;;;2.10;99.90;;;;;;10246674;28;84810;-46
2022/01/20 22:41:21;;;;;;;2.72;0.40;;;2.10;99.90;;;;;;10246958;28;84804;-44
2022/01/20 22:46:22;;;;;;;4.47;0.50;;;2.00;99.90;;;;;;10244170;28;85007;-44
2022/01/20 22:51:23;;;;;;;0.95;0.52;;;2.00;99.90;;;;;;10252904;28;84981;-43
2022/01/20 22:56:24;;;;;;;1.15;0.52;;;2.00;99.90;;;;;;10280906;28;84051;-44
2022/01/20 23:01:25;;;;;;;3.42;0.60;;;2.00;99.90;;;;;;10286627;28;84890;-44
2022/01/20 23:06:25;;;;;;;2.78;0.80;;;2.00;99.90;;;;;;10285791;28;84109;-45
2022/01/20 23:11:26;;;;;;;4.80;1.38;;;2.10;99.90;;;;;;10286918;28;84118;-45
2022/01/20 23:21:31;;;;;;;1.55;0.47;;;2.20;99.90;;;;;;10285113;28;85405;-45
2022/01/20 23:26:32;;;;;;;1.08;0.50;;;2.20;99.90;;;;;;10285651;28;84220;-43
2022/01/20 23:31:35;;;;;;;2.30;0.25;;;2.20;99.90;;;;;;10273073;22;85590;-46
2022/01/20 23:36:39;;;;;;;1.20;0.40;;;2.20;99.90;;;;;;10245365;28;84184;-49
2022/01/20 23:41:41;;;;;;;1.95;0.68;;;2.30;99.90;;;;;;10246039;28;84913;-46
2022/01/20 23:52:00;;;;;;;0.55;0.43;;;2.10;99.90;;;;;;10246818;28;84066;-48
2022/01/20 23:57:01;;;;;;;1.13;0.50;;;2.20;99.90;;;;;;10247329;28;84045;-47
